KBKT/BKT METAR and TAF weather

Enter ICAO airport designator
Station Type Date Time Source
KBKT METAR 2022/12/02 23:35 UTC NOAA

KBKT 022335Z AUTO 00000KT 10SM CLR 06/M02 A3045 RMK AO1 T00611020


Station Type Date Time Source
KBKT Decoded METAR 2022/12/02 23:35 UTC NOAA

Ft. Pickett / Blackstone, VA, United States (KBKT) 37-05N 077-57W
Dec 02, 2022 - 06:35 PM EST / 2022.12.02 2335 UTC
Wind: Calm:0
Visibility: 10 mile(s):0
Sky conditions: clear
Temperature: 43.0 F (6.1 C)
Dew Point: 28.4 F (-2.0 C)
Relative Humidity: 56%
Pressure (altimeter): 30.45 in. Hg (1031 hPa)
ob: KBKT 022335Z AUTO 00000KT 10SM CLR 06/M02 A3045 RMK AO1 T00611020
cycle: 23

Station Type Date Time Source
KBKT TAF UTC NOAA

Error!

Example: see airport list